createdAt,value
2023-03-17T00:01:55.112Z,78.30
2023-03-17T00:04:25.234Z,78.40
2023-03-17T00:06:53.253Z,78.90
2023-03-17T00:09:22.708Z,78.70
2023-03-17T00:11:50.907Z,78.60
2023-03-17T00:14:19.969Z,79.20
2023-03-17T00:16:50.563Z,78.60
2023-03-17T00:19:33.109Z,79.10
2023-03-17T00:22:02.538Z,78.90
2023-03-17T00:24:30.558Z,80.60
2023-03-17T00:26:58.348Z,79.80
2023-03-17T00:29:27.009Z,80.20
2023-03-17T00:31:57.064Z,79.00
2023-03-17T00:34:24.784Z,79.70
2023-03-17T00:36:52.609Z,78.90
2023-03-17T00:39:20.905Z,79.00
2023-03-17T00:41:49.390Z,78.80
2023-03-17T00:44:19.752Z,78.40
2023-03-17T00:47:08.810Z,78.50
2023-03-17T00:49:36.891Z,78.90
2023-03-17T00:52:04.990Z,78.70
2023-03-17T00:54:32.770Z,77.80
2023-03-17T00:57:00.672Z,78.30
2023-03-17T00:59:35.555Z,78.20
2023-03-17T01:02:03.334Z,77.40
2023-03-17T01:04:31.000Z,78.00
2023-03-17T01:06:58.727Z,78.30
2023-03-17T01:09:27.708Z,77.90
2023-03-17T01:11:55.916Z,78.30
2023-03-17T01:14:25.043Z,78.50
2023-03-17T01:16:55.910Z,77.90
2023-03-17T01:19:23.982Z,77.10
2023-03-17T01:21:52.543Z,76.70
2023-03-17T01:24:20.564Z,77.30
2023-03-17T01:26:48.233Z,77.40
2023-03-17T01:29:16.640Z,76.70
2023-03-17T01:31:45.488Z,77.10
2023-03-17T01:34:13.163Z,76.50
2023-03-17T01:36:41.655Z,78.00
2023-03-17T01:39:10.067Z,76.70
2023-03-17T01:41:40.302Z,77.30
2023-03-17T01:44:14.761Z,78.40
2023-03-17T01:46:42.482Z,78.60
2023-03-17T01:49:17.438Z,78.80
2023-03-17T01:51:49.997Z,78.30
2023-03-17T01:54:41.185Z,78.60
2023-03-17T01:57:28.683Z,78.00
2023-03-17T02:00:06.393Z,77.70
2023-03-17T02:02:44.039Z,77.90
2023-03-17T02:05:15.883Z,78.60
2023-03-17T02:07:45.149Z,77.70
2023-03-17T02:10:16.101Z,77.70
2023-03-17T02:12:46.018Z,77.00
2023-03-17T02:15:14.079Z,77.50
2023-03-17T02:17:41.740Z,77.70
2023-03-17T02:20:16.447Z,77.80
2023-03-17T02:22:45.540Z,77.40
2023-03-17T02:25:16.920Z,78.50
2023-03-17T02:27:48.125Z,79.70
2023-03-17T02:30:20.703Z,80.20
2023-03-17T02:32:48.365Z,80.40
2023-03-17T02:35:17.172Z,79.20
2023-03-17T02:37:47.010Z,80.30
2023-03-17T02:40:15.582Z,80.10
2023-03-17T02:42:43.392Z,80.50
2023-03-17T02:45:11.869Z,80.80
2023-03-17T02:47:40.068Z,80.20
2023-03-17T02:50:09.928Z,79.20
2023-03-17T02:52:37.632Z,79.70
2023-03-17T02:55:05.726Z,80.00
2023-03-17T02:57:33.341Z,80.80
2023-03-17T03:00:00.926Z,81.30
2023-03-17T03:02:28.642Z,81.50
2023-03-17T03:04:56.464Z,81.40
2023-03-17T03:07:24.192Z,81.40
2023-03-17T03:09:51.969Z,81.30
2023-03-17T03:12:19.624Z,81.20
2023-03-17T03:14:47.744Z,81.30
2023-03-17T03:17:16.153Z,82.20
2023-03-17T03:19:43.872Z,81.90
2023-03-17T03:22:11.827Z,82.50
2023-03-17T03:24:39.452Z,83.20
2023-03-17T03:27:07.373Z,83.30
2023-03-17T03:29:35.000Z,82.50
2023-03-17T03:32:02.709Z,83.30
2023-03-17T03:34:30.762Z,83.10
2023-03-17T03:36:58.502Z,83.60
2023-03-17T03:39:26.677Z,84.40
2023-03-17T03:41:57.519Z,83.30
2023-03-17T03:44:25.782Z,84.10
2023-03-17T03:46:53.360Z,84.10
2023-03-17T03:49:21.403Z,83.50
2023-03-17T03:51:49.046Z,83.90
2023-03-17T03:54:16.754Z,84.60
2023-03-17T03:56:44.273Z,83.80
2023-03-17T03:59:11.895Z,84.60
2023-03-17T04:01:40.143Z,84.80
2023-03-17T04:04:07.871Z,85.50
2023-03-17T04:06:35.716Z,84.40
2023-03-17T04:09:03.713Z,84.10
2023-03-17T04:11:31.587Z,84.70
2023-03-17T04:13:59.277Z,84.60
2023-03-17T04:16:27.264Z,83.80
2023-03-17T04:18:54.971Z,82.70
2023-03-17T04:21:22.726Z,83.60
2023-03-17T04:23:50.410Z,85.10
2023-03-17T04:26:18.885Z,84.50
2023-03-17T04:28:46.589Z,84.90
2023-03-17T04:31:14.590Z,84.90
2023-03-17T04:33:42.481Z,83.90
2023-03-17T04:36:20.078Z,85.20
2023-03-17T04:38:47.875Z,84.70
2023-03-17T04:41:15.945Z,84.50
2023-03-17T04:43:43.709Z,83.60
2023-03-17T04:46:11.992Z,83.40
2023-03-17T04:48:40.070Z,84.70
2023-03-17T04:51:09.778Z,84.00
2023-03-17T04:53:38.785Z,85.20
2023-03-17T04:56:06.628Z,84.00
2023-03-17T04:58:34.383Z,84.10
2023-03-17T05:01:03.832Z,83.60
2023-03-17T05:03:33.468Z,85.10
2023-03-17T05:06:02.006Z,85.50
2023-03-17T05:08:30.050Z,85.40
2023-03-17T05:10:58.666Z,84.80
2023-03-17T05:13:27.445Z,84.20
2023-03-17T05:15:56.395Z,85.90
2023-03-17T05:18:25.791Z,85.60
2023-03-17T05:20:53.831Z,84.30
2023-03-17T05:23:22.423Z,84.80
2023-03-17T05:25:50.724Z,85.40
2023-03-17T05:28:21.000Z,85.90
2023-03-17T05:30:49.355Z,85.60
2023-03-17T05:33:17.604Z,85.20
2023-03-17T05:35:45.490Z,85.80
2023-03-17T05:38:15.313Z,84.60
2023-03-17T05:40:43.600Z,86.00
2023-03-17T05:43:11.792Z,84.40
2023-03-17T05:45:39.497Z,83.70
2023-03-17T05:48:07.998Z,83.30
2023-03-17T05:50:36.046Z,83.00
2023-03-17T05:53:03.751Z,84.50
2023-03-17T05:55:31.442Z,84.50
2023-03-17T05:58:00.945Z,84.10
2023-03-17T06:00:29.519Z,83.20
2023-03-17T06:02:57.549Z,81.40
2023-03-17T06:05:25.223Z,80.80
2023-03-17T06:07:56.267Z,79.30
2023-03-17T06:10:25.065Z,77.90
2023-03-17T06:12:53.354Z,78.50
2023-03-17T06:15:21.404Z,79.60
2023-03-17T06:17:49.097Z,79.90
2023-03-17T06:20:16.859Z,79.10
2023-03-17T06:23:02.283Z,78.00
2023-03-17T06:25:32.034Z,76.90
2023-03-17T06:28:02.683Z,73.80
2023-03-17T06:30:33.090Z,72.60
2023-03-17T06:33:02.125Z,74.00
2023-03-17T06:35:31.295Z,72.20
2023-03-17T06:37:59.867Z,72.20
2023-03-17T06:40:27.714Z,71.30
2023-03-17T06:42:55.720Z,71.80
2023-03-17T06:45:23.536Z,70.80
2023-03-17T06:47:51.300Z,68.10
2023-03-17T06:50:19.074Z,69.10
2023-03-17T06:52:47.102Z,68.70
2023-03-17T06:55:15.423Z,70.50
2023-03-17T06:57:43.487Z,69.70
2023-03-17T07:00:14.367Z,69.10
2023-03-17T07:02:43.200Z,69.80
2023-03-17T07:05:11.073Z,69.60
2023-03-17T07:07:39.007Z,69.40
2023-03-17T07:10:10.548Z,69.10
2023-03-17T07:12:38.556Z,69.40
2023-03-17T07:15:06.772Z,67.60
2023-03-17T07:17:34.624Z,68.90
2023-03-17T07:20:02.370Z,69.10
2023-03-17T07:22:29.969Z,68.80
2023-03-17T07:24:57.777Z,67.90
2023-03-17T07:27:26.710Z,68.20
2023-03-17T07:29:54.599Z,66.60
2023-03-17T07:32:22.239Z,68.80
2023-03-17T07:34:50.191Z,67.20
2023-03-17T07:37:17.969Z,66.70
2023-03-17T07:39:47.426Z,68.30
2023-03-17T07:42:17.177Z,67.10
2023-03-17T07:44:44.953Z,65.30
2023-03-17T07:47:14.303Z,67.30
2023-03-17T07:49:42.586Z,66.80
2023-03-17T07:52:11.529Z,65.90
2023-03-17T07:54:42.241Z,64.80
2023-03-17T07:57:11.662Z,64.00
2023-03-17T07:59:40.107Z,65.90
2023-03-17T08:02:08.604Z,65.70
2023-03-17T08:04:36.498Z,64.20
2023-03-17T08:07:06.410Z,64.80
2023-03-17T08:09:34.153Z,63.10
2023-03-17T08:12:02.075Z,62.40
2023-03-17T08:14:30.542Z,63.70
2023-03-17T08:16:58.812Z,63.40
2023-03-17T08:19:27.159Z,60.20
2023-03-17T08:21:54.784Z,61.70
2023-03-17T08:24:22.543Z,61.90
2023-03-17T08:26:50.497Z,63.10
2023-03-17T08:29:19.049Z,61.50
2023-03-17T08:31:47.226Z,60.90
2023-03-17T08:34:16.330Z,61.40
2023-03-17T08:36:44.266Z,61.10
2023-03-17T08:39:11.957Z,61.80
2023-03-17T08:41:39.688Z,63.60
2023-03-17T08:44:08.989Z,60.70
2023-03-17T08:46:37.582Z,61.70
2023-03-17T08:49:05.219Z,61.80
2023-03-17T08:51:35.999Z,60.90
2023-03-17T08:54:05.901Z,61.80
2023-03-17T08:56:34.502Z,61.90
2023-03-17T08:59:02.269Z,60.90
2023-03-17T09:01:30.026Z,61.10
2023-03-17T09:03:57.835Z,61.10
2023-03-17T09:06:26.459Z,60.40
2023-03-17T09:08:56.965Z,61.40
2023-03-17T09:11:27.984Z,56.70
2023-03-17T09:13:56.686Z,59.30
2023-03-17T09:16:25.707Z,59.80
2023-03-17T09:18:53.946Z,56.40
2023-03-17T09:21:22.405Z,57.20
2023-03-17T09:23:52.579Z,57.40
2023-03-17T09:26:20.724Z,56.60
2023-03-17T09:28:48.890Z,57.30
2023-03-17T09:31:17.273Z,57.00
2023-03-17T09:33:45.707Z,57.50
2023-03-17T09:36:14.345Z,55.20
2023-03-17T09:38:42.509Z,56.60
2023-03-17T09:41:42.738Z,54.90
2023-03-17T09:44:52.261Z,55.80
2023-03-17T09:47:31.695Z,54.70
2023-03-17T09:50:02.182Z,56.70
2023-03-17T09:52:31.971Z,56.40
2023-03-17T09:55:01.275Z,56.00
2023-03-17T09:57:38.144Z,55.10
2023-03-17T10:00:23.516Z,55.50
2023-03-17T10:02:52.458Z,53.30
2023-03-17T10:05:25.149Z,55.80
2023-03-17T10:08:30.823Z,54.80
2023-03-17T10:11:07.066Z,57.10
2023-03-17T10:13:55.881Z,55.30
2023-03-17T10:16:51.545Z,53.40
2023-03-17T10:19:40.856Z,53.10
2023-03-17T10:22:21.996Z,54.30
2023-03-17T10:24:54.500Z,55.10
2023-03-17T10:27:22.574Z,54.00
2023-03-17T10:29:50.978Z,55.30
2023-03-17T10:32:18.726Z,52.50
2023-03-17T10:34:48.773Z,55.00
2023-03-17T10:37:23.117Z,53.50
2023-03-17T10:39:59.917Z,54.70
2023-03-17T10:42:29.630Z,54.80
2023-03-17T10:45:01.736Z,53.20
2023-03-17T10:47:32.699Z,54.50
2023-03-17T10:50:21.662Z,54.70
2023-03-17T10:53:16.510Z,53.20
2023-03-17T10:55:50.671Z,55.30
2023-03-17T10:58:25.050Z,54.80
2023-03-17T11:01:00.421Z,53.60
2023-03-17T11:03:35.366Z,52.90
2023-03-17T11:06:04.706Z,53.90
2023-03-17T11:08:35.794Z,53.10
2023-03-17T11:11:10.100Z,52.50
2023-03-17T11:13:38.145Z,52.50
2023-03-17T11:16:23.524Z,54.20
2023-03-17T11:18:58.119Z,53.30
2023-03-17T11:21:34.116Z,54.50
2023-03-17T11:24:09.413Z,51.70
2023-03-17T11:26:55.734Z,53.20
2023-03-17T11:29:23.849Z,53.10
2023-03-17T11:31:57.608Z,52.50
2023-03-17T11:34:57.262Z,54.20
2023-03-17T11:37:39.977Z,53.40
2023-03-17T11:40:32.262Z,53.20
2023-03-17T11:43:13.454Z,52.20
2023-03-17T11:45:54.076Z,53.60
2023-03-17T11:48:31.017Z,51.80
2023-03-17T11:51:20.281Z,54.10
2023-03-17T11:53:55.832Z,51.10
2023-03-17T11:56:34.445Z,52.30
2023-03-17T11:59:46.546Z,52.20
2023-03-17T12:02:17.491Z,50.90
2023-03-17T12:04:58.415Z,53.00
2023-03-17T12:07:31.560Z,52.00
2023-03-17T12:10:28.990Z,52.00
2023-03-17T12:13:07.431Z,52.00
2023-03-17T12:15:45.845Z,50.90
2023-03-17T12:18:28.376Z,51.60
2023-03-17T12:21:37.210Z,51.00
2023-03-17T12:24:13.385Z,50.90
2023-03-17T12:26:55.395Z,49.80
2023-03-17T12:29:52.643Z,50.90
2023-03-17T12:32:29.431Z,52.00
2023-03-17T12:34:59.934Z,49.90
2023-03-17T12:37:30.276Z,51.80
2023-03-17T12:40:12.488Z,50.80
2023-03-17T12:42:53.808Z,51.00
2023-03-17T12:45:33.771Z,52.30
2023-03-17T12:48:15.974Z,50.70
2023-03-17T12:51:06.845Z,50.20
2023-03-17T12:53:38.889Z,49.90
2023-03-17T12:56:12.004Z,51.20
2023-03-17T12:58:44.338Z,49.50
2023-03-17T13:01:15.032Z,49.50
2023-03-17T13:04:26.475Z,51.70
2023-03-17T13:07:06.634Z,50.80
2023-03-17T13:09:36.578Z,52.00
2023-03-17T13:12:07.349Z,50.10
2023-03-17T13:14:46.019Z,51.00
2023-03-17T13:17:17.095Z,51.50
2023-03-17T13:20:08.208Z,50.30
2023-03-17T13:22:41.723Z,49.50
2023-03-17T13:25:27.583Z,51.40
2023-03-17T13:28:12.579Z,51.00
2023-03-17T13:30:40.315Z,50.80
2023-03-17T13:33:15.746Z,50.00
2023-03-17T13:36:00.658Z,50.90
2023-03-17T13:39:15.009Z,51.40
2023-03-17T13:42:01.115Z,49.90
2023-03-17T13:44:55.703Z,50.40
2023-03-17T13:47:23.517Z,49.20
2023-03-17T13:49:55.848Z,50.30
2023-03-17T13:52:50.516Z,49.70
2023-03-17T13:55:18.264Z,49.80
2023-03-17T13:58:12.237Z,49.30
2023-03-17T14:00:43.837Z,49.90
2023-03-17T14:03:20.081Z,50.20
2023-03-17T14:05:51.514Z,49.70
2023-03-17T14:08:32.000Z,50.80
2023-03-17T14:11:03.297Z,50.70
2023-03-17T14:13:46.949Z,50.60
2023-03-17T14:16:26.855Z,50.60
2023-03-17T14:19:09.793Z,51.60
2023-03-17T14:21:37.379Z,50.90
2023-03-17T14:24:28.842Z,51.30
2023-03-17T14:26:56.913Z,50.50
2023-03-17T14:29:33.769Z,50.00
2023-03-17T14:32:18.273Z,50.60
2023-03-17T14:34:59.395Z,50.90
2023-03-17T14:37:27.956Z,50.10
2023-03-17T14:39:57.833Z,50.30
2023-03-17T14:42:28.698Z,50.30
2023-03-17T14:45:06.689Z,50.40
2023-03-17T14:47:40.099Z,50.00
2023-03-17T14:50:25.684Z,50.30
2023-03-17T14:52:54.089Z,50.80
2023-03-17T14:55:22.272Z,50.40
2023-03-17T14:57:52.704Z,51.20
2023-03-17T15:00:46.182Z,50.60
2023-03-17T15:03:20.711Z,50.30
2023-03-17T15:05:49.562Z,51.60
2023-03-17T15:08:41.463Z,51.50
2023-03-17T15:11:22.747Z,51.50
2023-03-17T15:13:56.128Z,50.50
2023-03-17T15:16:36.400Z,51.40
2023-03-17T15:19:17.740Z,49.30
2023-03-17T15:21:45.457Z,51.00
2023-03-17T15:24:21.985Z,50.90
2023-03-17T15:26:49.825Z,54.80
2023-03-17T15:29:17.818Z,53.70
2023-03-17T15:31:45.740Z,51.90
2023-03-17T15:34:16.099Z,54.20
2023-03-17T15:36:47.575Z,50.40
2023-03-17T15:39:15.508Z,51.60
2023-03-17T15:41:43.235Z,50.50
2023-03-17T15:44:10.965Z,53.70
2023-03-17T15:46:38.692Z,51.80
2023-03-17T15:49:11.293Z,55.50
2023-03-17T15:51:38.895Z,53.10
2023-03-17T15:54:06.672Z,53.50
2023-03-17T15:56:35.646Z,56.00
2023-03-17T15:59:04.807Z,54.80
2023-03-17T16:01:32.634Z,57.20
2023-03-17T16:04:00.388Z,54.10
2023-03-17T16:06:28.085Z,56.00
2023-03-17T16:08:55.892Z,57.60
2023-03-17T16:11:29.322Z,56.60
2023-03-17T16:14:00.477Z,54.20
2023-03-17T16:16:37.174Z,57.60
2023-03-17T16:19:07.310Z,56.20
2023-03-17T16:21:35.054Z,57.80
2023-03-17T16:24:03.301Z,58.60
2023-03-17T16:26:31.763Z,55.40
2023-03-17T16:28:59.500Z,60.50
2023-03-17T16:31:31.000Z,61.20
2023-03-17T16:33:58.937Z,57.60
2023-03-17T16:36:26.733Z,57.40
2023-03-17T16:38:54.560Z,59.10
2023-03-17T16:41:25.296Z,61.00
2023-03-17T16:44:03.346Z,61.30
2023-03-17T16:46:35.532Z,57.80
2023-03-17T16:49:05.011Z,60.80
2023-03-17T16:51:32.672Z,58.40
2023-03-17T16:54:00.428Z,58.60
2023-03-17T16:56:28.381Z,62.80
2023-03-17T16:58:56.304Z,60.30
2023-03-17T17:01:27.027Z,61.10
2023-03-17T17:03:55.913Z,62.30
2023-03-17T17:06:24.823Z,63.30
2023-03-17T17:08:53.150Z,62.50
2023-03-17T17:11:22.968Z,62.30
2023-03-17T17:13:51.889Z,63.30
2023-03-17T17:16:29.827Z,63.70
2023-03-17T17:19:01.462Z,62.80
2023-03-17T17:21:31.181Z,63.60
2023-03-17T17:23:59.322Z,64.60
2023-03-17T17:26:28.900Z,63.00
2023-03-17T17:28:56.989Z,65.10
2023-03-17T17:31:25.691Z,66.40
2023-03-17T17:33:54.017Z,64.30
2023-03-17T17:36:22.029Z,66.40
2023-03-17T17:38:51.842Z,65.00
2023-03-17T17:41:21.816Z,66.60
2023-03-17T17:43:50.973Z,65.80
2023-03-17T17:46:22.570Z,66.10
2023-03-17T17:48:51.314Z,66.40
2023-03-17T17:51:20.186Z,68.90
2023-03-17T17:53:50.432Z,68.40
2023-03-17T17:56:20.374Z,67.20
2023-03-17T17:58:48.949Z,68.60
2023-03-17T18:01:20.213Z,66.90
2023-03-17T18:03:49.641Z,67.40
2023-03-17T18:06:18.606Z,67.40
2023-03-17T18:08:47.716Z,69.00
2023-03-17T18:11:18.194Z,68.10
2023-03-17T18:13:47.323Z,68.50
2023-03-17T18:16:17.474Z,68.80
2023-03-17T18:18:47.592Z,68.10
2023-03-17T18:21:17.107Z,69.10
2023-03-17T18:23:50.306Z,69.50
2023-03-17T18:26:19.130Z,69.80
2023-03-17T18:28:48.996Z,72.40
2023-03-17T18:31:22.961Z,70.00
2023-03-17T18:33:54.048Z,69.10
2023-03-17T18:36:23.208Z,71.00
2023-03-17T18:38:52.563Z,72.10
2023-03-17T18:41:21.224Z,70.30
2023-03-17T18:43:49.455Z,73.00
2023-03-17T18:46:18.882Z,70.30
2023-03-17T18:48:48.166Z,71.90
2023-03-17T18:51:18.046Z,73.30
2023-03-17T18:53:47.627Z,71.20
2023-03-17T18:56:16.597Z,73.10
2023-03-17T18:58:45.934Z,72.30
2023-03-17T19:01:14.928Z,73.70
2023-03-17T19:03:43.409Z,74.30
2023-03-17T19:06:16.537Z,74.90
2023-03-17T19:08:46.471Z,71.60
2023-03-17T19:11:18.453Z,72.40
2023-03-17T19:13:47.988Z,75.20
2023-03-17T19:16:17.257Z,72.60
2023-03-17T19:18:48.214Z,73.60
2023-03-17T19:21:18.251Z,72.60
2023-03-17T19:23:50.818Z,73.90
2023-03-17T19:26:21.248Z,76.10
2023-03-17T19:28:50.305Z,73.60
2023-03-17T19:31:19.499Z,76.30
2023-03-17T19:33:47.856Z,74.80
2023-03-17T19:36:16.721Z,73.90
2023-03-17T19:38:47.019Z,74.50
2023-03-17T19:41:16.471Z,73.40
2023-03-17T19:43:47.236Z,75.90
2023-03-17T19:46:16.820Z,73.50
2023-03-17T19:48:46.105Z,75.00
2023-03-17T19:51:16.401Z,73.80
2023-03-17T19:53:44.793Z,76.90
2023-03-17T19:56:14.754Z,74.90
2023-03-17T19:58:43.653Z,74.80
2023-03-17T20:01:14.834Z,74.70
2023-03-17T20:03:47.683Z,75.20
2023-03-17T20:06:16.882Z,75.10
2023-03-17T20:08:46.700Z,74.90
2023-03-17T20:11:15.578Z,75.40
2023-03-17T20:13:45.545Z,74.50
2023-03-17T20:16:14.927Z,75.20
2023-03-17T20:18:46.205Z,74.90
2023-03-17T20:21:16.286Z,75.20
2023-03-17T20:23:46.942Z,75.40
2023-03-17T20:26:15.267Z,75.40
2023-03-17T20:28:44.002Z,75.50
2023-03-17T20:31:13.207Z,75.70
2023-03-17T20:33:42.454Z,75.70
2023-03-17T20:36:13.446Z,76.00
2023-03-17T20:38:44.274Z,75.50
2023-03-17T20:41:15.764Z,75.00
2023-03-17T20:43:45.682Z,74.40
2023-03-17T20:46:20.276Z,74.00
2023-03-17T20:48:52.623Z,74.20
2023-03-17T20:51:22.880Z,72.90
2023-03-17T20:53:51.454Z,72.90
2023-03-17T20:56:25.058Z,72.40
2023-03-17T20:58:53.450Z,72.90
2023-03-17T21:01:23.048Z,73.20
2023-03-17T21:03:53.268Z,72.80
2023-03-17T21:06:24.158Z,72.80
2023-03-17T21:08:55.625Z,72.40
2023-03-17T21:11:26.932Z,73.50
2023-03-17T21:13:56.811Z,73.90
2023-03-17T21:16:30.097Z,74.60
2023-03-17T21:18:58.064Z,75.40
2023-03-17T21:21:26.899Z,76.20
2023-03-17T21:23:56.452Z,78.50
2023-03-17T21:26:26.028Z,78.80
2023-03-17T21:28:55.158Z,78.00
2023-03-17T21:31:23.621Z,79.50
2023-03-17T21:33:52.407Z,80.00
2023-03-17T21:36:21.377Z,78.40
2023-03-17T21:38:49.480Z,79.50
2023-03-17T21:41:34.456Z,78.70
2023-03-17T21:44:03.779Z,77.80
2023-03-17T21:46:32.138Z,76.50
2023-03-17T21:49:00.504Z,76.30
2023-03-17T21:51:28.599Z,78.20
2023-03-17T21:53:57.831Z,78.60
2023-03-17T21:56:25.526Z,78.70
2023-03-17T21:58:53.220Z,79.40
2023-03-17T22:01:21.907Z,79.00
2023-03-17T22:03:52.531Z,78.90
2023-03-17T22:06:21.646Z,78.40
2023-03-17T22:08:50.922Z,79.60
2023-03-17T22:11:19.705Z,78.20
2023-03-17T22:13:47.851Z,81.60
2023-03-17T22:16:18.513Z,77.30
2023-03-17T22:18:47.611Z,79.80
2023-03-17T22:21:15.557Z,80.20
2023-03-17T22:23:44.559Z,79.90
2023-03-17T22:26:15.082Z,80.50
2023-03-17T22:28:44.798Z,80.20
2023-03-17T22:31:13.921Z,77.50
2023-03-17T22:33:42.024Z,77.20
2023-03-17T22:36:10.447Z,78.10
2023-03-17T22:38:38.421Z,79.70
2023-03-17T22:41:13.773Z,77.10
2023-03-17T22:43:42.414Z,78.50
2023-03-17T22:46:11.277Z,80.40
2023-03-17T22:48:40.541Z,80.60
2023-03-17T22:51:13.229Z,80.50
2023-03-17T22:53:41.460Z,79.30
2023-03-17T22:56:11.097Z,78.90
2023-03-17T22:58:40.058Z,78.40
2023-03-17T23:01:09.093Z,77.60
2023-03-17T23:03:37.248Z,77.70
2023-03-17T23:06:06.782Z,79.00
2023-03-17T23:08:37.373Z,81.20
2023-03-17T23:11:10.630Z,79.60
2023-03-17T23:13:40.196Z,79.70
2023-03-17T23:16:08.865Z,80.70
2023-03-17T23:18:36.787Z,78.50
2023-03-17T23:21:05.492Z,80.60
2023-03-17T23:23:34.281Z,77.80
2023-03-17T23:26:02.305Z,80.10
2023-03-17T23:28:30.100Z,81.00
2023-03-17T23:30:58.663Z,80.90
2023-03-17T23:33:26.850Z,81.40
2023-03-17T23:35:54.656Z,81.00
2023-03-17T23:38:22.609Z,81.70
2023-03-17T23:40:50.978Z,79.00
2023-03-17T23:43:19.626Z,80.00
2023-03-17T23:45:51.160Z,78.00
2023-03-17T23:48:20.921Z,79.10
2023-03-17T23:50:52.565Z,82.50
2023-03-17T23:53:22.026Z,79.70
2023-03-17T23:55:51.507Z,82.60
2023-03-17T23:58:19.757Z,82.20
